sensor_id;sensor_type;location;lat;lon;timestamp;P1;durP1;ratioP1;P2;durP2;ratioP2
1370;SDS011;14306;49.942;11.570;2022-09-14T00:01:33;11.47;;;7.87;;
1370;SDS011;14306;49.942;11.570;2022-09-14T00:04:03;11.20;;;9.30;;
1370;SDS011;14306;49.942;11.570;2022-09-14T00:06:33;13.40;;;9.30;;
1370;SDS011;14306;49.942;11.570;2022-09-14T00:09:02;14.40;;;9.50;;
1370;SDS011;14306;49.942;11.570;2022-09-14T00:11:33;12.30;;;8.27;;
1370;SDS011;14306;49.942;11.570;2022-09-14T00:14:06;13.67;;;9.43;;
1370;SDS011;14306;49.942;11.570;2022-09-14T00:16:35;12.93;;;8.27;;
1370;SDS011;14306;49.942;11.570;2022-09-14T00:19:06;12.07;;;9.00;;
1370;SDS011;14306;49.942;11.570;2022-09-14T00:21:40;9.93;;;8.60;;
1370;SDS011;14306;49.942;11.570;2022-09-14T00:24:08;9.63;;;8.33;;
1370;SDS011;14306;49.942;11.570;2022-09-14T00:26:39;14.27;;;8.67;;
1370;SDS011;14306;49.942;11.570;2022-09-14T00:29:08;10.33;;;7.10;;
1370;SDS011;14306;49.942;11.570;2022-09-14T00:31:38;12.77;;;8.30;;
1370;SDS011;14306;49.942;11.570;2022-09-14T00:34:07;12.90;;;8.70;;
1370;SDS011;14306;49.942;11.570;2022-09-14T00:36:38;11.50;;;8.30;;
1370;SDS011;14306;49.942;11.570;2022-09-14T00:39:08;8.43;;;7.53;;
1370;SDS011;14306;49.942;11.570;2022-09-14T00:41:37;12.70;;;8.30;;
1370;SDS011;14306;49.942;11.570;2022-09-14T00:47:10;13.53;;;9.50;;
1370;SDS011;14306;49.942;11.570;2022-09-14T00:49:39;9.57;;;7.67;;
1370;SDS011;14306;49.942;11.570;2022-09-14T00:52:10;9.13;;;7.43;;
1370;SDS011;14306;49.942;11.570;2022-09-14T00:54:41;11.17;;;8.63;;
1370;SDS011;14306;49.942;11.570;2022-09-14T00:57:13;9.20;;;7.70;;
1370;SDS011;14306;49.942;11.570;2022-09-14T00:59:43;10.70;;;9.00;;
1370;SDS011;14306;49.942;11.570;2022-09-14T01:02:13;11.53;;;7.90;;
1370;SDS011;14306;49.942;11.570;2022-09-14T01:04:41;13.10;;;9.10;;
1370;SDS011;14306;49.942;11.570;2022-09-14T01:07:13;9.70;;;7.60;;
1370;SDS011;14306;49.942;11.570;2022-09-14T01:09:51;11.97;;;9.10;;
1370;SDS011;14306;49.942;11.570;2022-09-14T01:12:27;10.77;;;8.37;;
1370;SDS011;14306;49.942;11.570;2022-09-14T01:15:04;11.30;;;8.47;;
1370;SDS011;14306;49.942;11.570;2022-09-14T01:17:37;13.00;;;8.73;;
1370;SDS011;14306;49.942;11.570;2022-09-14T01:20:17;12.00;;;8.67;;
1370;SDS011;14306;49.942;11.570;2022-09-14T01:22:57;10.37;;;8.77;;
1370;SDS011;14306;49.942;11.570;2022-09-14T01:25:35;10.70;;;9.00;;
1370;SDS011;14306;49.942;11.570;2022-09-14T01:28:18;12.40;;;8.80;;
1370;SDS011;14306;49.942;11.570;2022-09-14T01:30:50;12.47;;;9.00;;
1370;SDS011;14306;49.942;11.570;2022-09-14T01:33:23;9.80;;;7.47;;
1370;SDS011;14306;49.942;11.570;2022-09-14T01:35:56;9.83;;;7.53;;
1370;SDS011;14306;49.942;11.570;2022-09-14T01:38:26;9.30;;;8.33;;
1370;SDS011;14306;49.942;11.570;2022-09-14T01:40:59;10.97;;;8.37;;
1370;SDS011;14306;49.942;11.570;2022-09-14T01:43:33;11.67;;;7.17;;
1370;SDS011;14306;49.942;11.570;2022-09-14T01:46:06;9.83;;;7.93;;
1370;SDS011;14306;49.942;11.570;2022-09-14T01:48:39;13.60;;;8.70;;
1370;SDS011;14306;49.942;11.570;2022-09-14T01:51:11;11.77;;;8.57;;
1370;SDS011;14306;49.942;11.570;2022-09-14T01:53:42;11.93;;;7.93;;
1370;SDS011;14306;49.942;11.570;2022-09-14T01:56:15;12.53;;;8.50;;
1370;SDS011;14306;49.942;11.570;2022-09-14T01:58:49;10.77;;;8.77;;
1370;SDS011;14306;49.942;11.570;2022-09-14T02:01:22;14.00;;;9.30;;
1370;SDS011;14306;49.942;11.570;2022-09-14T02:03:56;12.97;;;9.13;;
1370;SDS011;14306;49.942;11.570;2022-09-14T02:06:30;12.93;;;8.77;;
1370;SDS011;14306;49.942;11.570;2022-09-14T02:09:02;13.70;;;9.30;;
1370;SDS011;14306;49.942;11.570;2022-09-14T02:11:32;12.13;;;9.87;;
1370;SDS011;14306;49.942;11.570;2022-09-14T02:14:02;11.87;;;9.07;;
1370;SDS011;14306;49.942;11.570;2022-09-14T02:16:30;10.93;;;9.10;;
1370;SDS011;14306;49.942;11.570;2022-09-14T02:18:58;13.60;;;9.50;;
1370;SDS011;14306;49.942;11.570;2022-09-14T02:21:28;13.97;;;10.20;;
1370;SDS011;14306;49.942;11.570;2022-09-14T02:23:57;12.83;;;9.53;;
1370;SDS011;14306;49.942;11.570;2022-09-14T02:26:27;12.87;;;9.33;;
1370;SDS011;14306;49.942;11.570;2022-09-14T02:28:55;11.90;;;9.40;;
1370;SDS011;14306;49.942;11.570;2022-09-14T02:31:32;17.13;;;9.80;;
1370;SDS011;14306;49.942;11.570;2022-09-14T02:34:07;10.67;;;9.30;;
1370;SDS011;14306;49.942;11.570;2022-09-14T02:36:43;10.27;;;7.67;;
1370;SDS011;14306;49.942;11.570;2022-09-14T02:39:18;12.40;;;9.60;;
1370;SDS011;14306;49.942;11.570;2022-09-14T02:41:56;15.03;;;10.00;;
1370;SDS011;14306;49.942;11.570;2022-09-14T02:44:33;12.40;;;9.50;;
1370;SDS011;14306;49.942;11.570;2022-09-14T02:47:09;17.63;;;11.30;;
1370;SDS011;14306;49.942;11.570;2022-09-14T02:49:45;13.13;;;10.87;;
1370;SDS011;14306;49.942;11.570;2022-09-14T02:52:21;15.10;;;9.60;;
1370;SDS011;14306;49.942;11.570;2022-09-14T02:54:57;15.80;;;9.00;;
1370;SDS011;14306;49.942;11.570;2022-09-14T02:57:30;13.33;;;9.97;;
1370;SDS011;14306;49.942;11.570;2022-09-14T02:59:57;25.90;;;11.93;;
1370;SDS011;14306;49.942;11.570;2022-09-14T03:02:27;15.60;;;11.33;;
1370;SDS011;14306;49.942;11.570;2022-09-14T03:04:55;13.97;;;10.50;;
1370;SDS011;14306;49.942;11.570;2022-09-14T03:07:25;15.60;;;11.13;;
1370;SDS011;14306;49.942;11.570;2022-09-14T03:09:53;13.77;;;11.10;;
1370;SDS011;14306;49.942;11.570;2022-09-14T03:12:20;13.30;;;10.23;;
1370;SDS011;14306;49.942;11.570;2022-09-14T03:14:49;14.70;;;11.03;;
1370;SDS011;14306;49.942;11.570;2022-09-14T03:17:17;14.67;;;11.77;;
1370;SDS011;14306;49.942;11.570;2022-09-14T03:19:46;16.40;;;11.30;;
1370;SDS011;14306;49.942;11.570;2022-09-14T03:22:14;18.47;;;12.17;;
1370;SDS011;14306;49.942;11.570;2022-09-14T03:24:42;19.20;;;12.43;;
1370;SDS011;14306;49.942;11.570;2022-09-14T03:27:11;18.23;;;12.00;;
1370;SDS011;14306;49.942;11.570;2022-09-14T03:29:39;18.20;;;10.93;;
1370;SDS011;14306;49.942;11.570;2022-09-14T03:32:07;16.20;;;12.80;;
1370;SDS011;14306;49.942;11.570;2022-09-14T03:34:36;18.00;;;11.53;;
1370;SDS011;14306;49.942;11.570;2022-09-14T03:37:05;19.73;;;11.43;;
1370;SDS011;14306;49.942;11.570;2022-09-14T03:39:33;14.30;;;10.57;;
1370;SDS011;14306;49.942;11.570;2022-09-14T03:42:01;16.13;;;11.80;;
1370;SDS011;14306;49.942;11.570;2022-09-14T03:44:30;14.37;;;11.10;;
1370;SDS011;14306;49.942;11.570;2022-09-14T03:46:57;17.47;;;12.80;;
1370;SDS011;14306;49.942;11.570;2022-09-14T03:49:26;21.63;;;11.43;;
1370;SDS011;14306;49.942;11.570;2022-09-14T03:51:54;18.00;;;12.20;;
1370;SDS011;14306;49.942;11.570;2022-09-14T03:54:26;19.73;;;13.37;;
1370;SDS011;14306;49.942;11.570;2022-09-14T03:56:54;17.97;;;12.27;;
1370;SDS011;14306;49.942;11.570;2022-09-14T03:59:22;21.30;;;13.83;;
1370;SDS011;14306;49.942;11.570;2022-09-14T04:01:50;18.40;;;14.67;;
1370;SDS011;14306;49.942;11.570;2022-09-14T04:04:18;26.73;;;13.20;;
1370;SDS011;14306;49.942;11.570;2022-09-14T04:06:46;15.90;;;11.40;;
1370;SDS011;14306;49.942;11.570;2022-09-14T04:09:14;16.07;;;12.70;;
1370;SDS011;14306;49.942;11.570;2022-09-14T04:11:46;26.50;;;16.50;;
1370;SDS011;14306;49.942;11.570;2022-09-14T04:14:14;53.50;;;31.50;;
1370;SDS011;14306;49.942;11.570;2022-09-14T04:16:43;64.20;;;39.50;;
1370;SDS011;14306;49.942;11.570;2022-09-14T04:19:11;68.43;;;42.07;;
1370;SDS011;14306;49.942;11.570;2022-09-14T04:21:39;58.63;;;34.33;;
1370;SDS011;14306;49.942;11.570;2022-09-14T04:24:08;36.97;;;20.57;;
1370;SDS011;14306;49.942;11.570;2022-09-14T04:26:41;31.93;;;19.97;;
1370;SDS011;14306;49.942;11.570;2022-09-14T04:29:11;34.03;;;22.20;;
1370;SDS011;14306;49.942;11.570;2022-09-14T04:31:41;29.43;;;15.77;;
1370;SDS011;14306;49.942;11.570;2022-09-14T04:34:10;22.30;;;16.03;;
1370;SDS011;14306;49.942;11.570;2022-09-14T04:36:39;24.57;;;15.33;;
1370;SDS011;14306;49.942;11.570;2022-09-14T04:39:08;26.13;;;15.33;;
1370;SDS011;14306;49.942;11.570;2022-09-14T04:41:39;27.47;;;16.77;;
1370;SDS011;14306;49.942;11.570;2022-09-14T04:44:07;28.97;;;15.93;;
1370;SDS011;14306;49.942;11.570;2022-09-14T04:46:36;24.23;;;15.93;;
1370;SDS011;14306;49.942;11.570;2022-09-14T04:49:12;25.20;;;17.07;;
1370;SDS011;14306;49.942;11.570;2022-09-14T04:51:41;24.80;;;15.97;;
1370;SDS011;14306;49.942;11.570;2022-09-14T04:54:11;31.07;;;20.00;;
1370;SDS011;14306;49.942;11.570;2022-09-14T04:56:40;25.80;;;16.77;;
1370;SDS011;14306;49.942;11.570;2022-09-14T04:59:08;33.00;;;19.37;;
1370;SDS011;14306;49.942;11.570;2022-09-14T05:01:39;29.90;;;17.90;;
1370;SDS011;14306;49.942;11.570;2022-09-14T05:04:09;22.93;;;16.97;;
1370;SDS011;14306;49.942;11.570;2022-09-14T05:06:39;29.30;;;19.87;;
1370;SDS011;14306;49.942;11.570;2022-09-14T05:09:09;27.67;;;18.20;;
1370;SDS011;14306;49.942;11.570;2022-09-14T05:11:40;31.77;;;18.20;;
1370;SDS011;14306;49.942;11.570;2022-09-14T05:14:08;32.03;;;18.23;;
1370;SDS011;14306;49.942;11.570;2022-09-14T05:16:39;25.13;;;16.33;;
1370;SDS011;14306;49.942;11.570;2022-09-14T05:19:10;29.33;;;17.30;;
1370;SDS011;14306;49.942;11.570;2022-09-14T05:21:40;27.20;;;18.17;;
1370;SDS011;14306;49.942;11.570;2022-09-14T05:24:09;28.80;;;18.40;;
1370;SDS011;14306;49.942;11.570;2022-09-14T05:26:40;23.50;;;17.13;;
1370;SDS011;14306;49.942;11.570;2022-09-14T05:29:12;27.20;;;18.23;;
1370;SDS011;14306;49.942;11.570;2022-09-14T05:31:43;25.53;;;17.17;;
1370;SDS011;14306;49.942;11.570;2022-09-14T05:34:11;26.43;;;16.80;;
1370;SDS011;14306;49.942;11.570;2022-09-14T05:36:40;27.40;;;17.60;;
1370;SDS011;14306;49.942;11.570;2022-09-14T05:39:08;23.27;;;17.40;;
1370;SDS011;14306;49.942;11.570;2022-09-14T05:41:39;25.97;;;17.10;;
1370;SDS011;14306;49.942;11.570;2022-09-14T05:44:08;27.40;;;16.97;;
1370;SDS011;14306;49.942;11.570;2022-09-14T05:46:39;25.00;;;17.77;;
1370;SDS011;14306;49.942;11.570;2022-09-14T05:49:09;25.40;;;18.03;;
1370;SDS011;14306;49.942;11.570;2022-09-14T05:51:37;25.80;;;16.97;;
1370;SDS011;14306;49.942;11.570;2022-09-14T05:54:08;29.47;;;19.27;;
1370;SDS011;14306;49.942;11.570;2022-09-14T05:56:37;24.77;;;17.47;;
1370;SDS011;14306;49.942;11.570;2022-09-14T05:59:08;29.60;;;19.77;;
1370;SDS011;14306;49.942;11.570;2022-09-14T06:01:36;29.67;;;17.77;;
1370;SDS011;14306;49.942;11.570;2022-09-14T06:04:04;28.60;;;18.80;;
1370;SDS011;14306;49.942;11.570;2022-09-14T06:06:34;27.67;;;19.60;;
1370;SDS011;14306;49.942;11.570;2022-09-14T06:09:03;27.20;;;19.13;;
1370;SDS011;14306;49.942;11.570;2022-09-14T06:11:31;30.93;;;20.40;;
1370;SDS011;14306;49.942;11.570;2022-09-14T06:14:01;33.23;;;20.60;;
1370;SDS011;14306;49.942;11.570;2022-09-14T06:16:33;29.80;;;18.93;;
1370;SDS011;14306;49.942;11.570;2022-09-14T06:19:01;31.70;;;19.00;;
1370;SDS011;14306;49.942;11.570;2022-09-14T06:21:32;36.00;;;20.70;;
1370;SDS011;14306;49.942;11.570;2022-09-14T06:24:02;26.23;;;19.00;;
1370;SDS011;14306;49.942;11.570;2022-09-14T06:26:32;31.27;;;19.10;;
1370;SDS011;14306;49.942;11.570;2022-09-14T06:29:00;32.67;;;22.07;;
1370;SDS011;14306;49.942;11.570;2022-09-14T06:31:28;37.00;;;21.50;;
1370;SDS011;14306;49.942;11.570;2022-09-14T06:33:57;37.40;;;22.83;;
1370;SDS011;14306;49.942;11.570;2022-09-14T06:36:26;29.50;;;19.73;;
1370;SDS011;14306;49.942;11.570;2022-09-14T06:38:55;26.30;;;20.47;;
1370;SDS011;14306;49.942;11.570;2022-09-14T06:41:27;30.10;;;20.00;;
1370;SDS011;14306;49.942;11.570;2022-09-14T06:43:56;28.97;;;18.87;;
1370;SDS011;14306;49.942;11.570;2022-09-14T06:46:25;25.17;;;18.30;;
1370;SDS011;14306;49.942;11.570;2022-09-14T06:48:56;31.00;;;19.97;;
1370;SDS011;14306;49.942;11.570;2022-09-14T06:51:27;24.63;;;17.60;;
1370;SDS011;14306;49.942;11.570;2022-09-14T06:53:57;28.93;;;18.80;;
1370;SDS011;14306;49.942;11.570;2022-09-14T06:56:29;27.00;;;18.00;;
1370;SDS011;14306;49.942;11.570;2022-09-14T06:59:01;27.73;;;17.30;;
1370;SDS011;14306;49.942;11.570;2022-09-14T07:01:30;19.60;;;14.27;;
1370;SDS011;14306;49.942;11.570;2022-09-14T07:03:59;18.03;;;14.50;;
1370;SDS011;14306;49.942;11.570;2022-09-14T07:06:29;17.23;;;14.57;;
1370;SDS011;14306;49.942;11.570;2022-09-14T07:09:04;20.67;;;15.33;;
1370;SDS011;14306;49.942;11.570;2022-09-14T07:11:34;20.90;;;15.90;;
1370;SDS011;14306;49.942;11.570;2022-09-14T07:14:02;22.43;;;15.60;;
1370;SDS011;14306;49.942;11.570;2022-09-14T07:16:31;19.03;;;14.30;;
1370;SDS011;14306;49.942;11.570;2022-09-14T07:19:03;16.23;;;13.43;;
1370;SDS011;14306;49.942;11.570;2022-09-14T07:21:34;18.13;;;13.83;;
1370;SDS011;14306;49.942;11.570;2022-09-14T07:24:02;19.57;;;14.03;;
1370;SDS011;14306;49.942;11.570;2022-09-14T07:26:31;31.97;;;16.77;;
1370;SDS011;14306;49.942;11.570;2022-09-14T07:29:08;20.93;;;15.30;;
1370;SDS011;14306;49.942;11.570;2022-09-14T07:31:39;19.47;;;13.37;;
1370;SDS011;14306;49.942;11.570;2022-09-14T07:34:08;19.77;;;14.80;;
1370;SDS011;14306;49.942;11.570;2022-09-14T07:36:39;20.67;;;13.53;;
1370;SDS011;14306;49.942;11.570;2022-09-14T07:39:08;22.90;;;15.27;;
1370;SDS011;14306;49.942;11.570;2022-09-14T07:41:37;17.73;;;13.30;;
1370;SDS011;14306;49.942;11.570;2022-09-14T07:44:12;20.90;;;13.60;;
1370;SDS011;14306;49.942;11.570;2022-09-14T07:46:42;20.97;;;14.10;;
1370;SDS011;14306;49.942;11.570;2022-09-14T07:49:11;17.30;;;14.03;;
1370;SDS011;14306;49.942;11.570;2022-09-14T07:51:41;19.57;;;12.90;;
1370;SDS011;14306;49.942;11.570;2022-09-14T07:54:10;16.47;;;12.77;;
1370;SDS011;14306;49.942;11.570;2022-09-14T07:56:40;19.17;;;13.43;;
1370;SDS011;14306;49.942;11.570;2022-09-14T07:59:09;19.07;;;14.60;;
1370;SDS011;14306;49.942;11.570;2022-09-14T08:01:59;25.53;;;14.53;;
1370;SDS011;14306;49.942;11.570;2022-09-14T08:04:28;19.63;;;12.17;;
1370;SDS011;14306;49.942;11.570;2022-09-14T08:06:56;16.23;;;12.83;;
1370;SDS011;14306;49.942;11.570;2022-09-14T08:09:24;19.50;;;15.17;;
1370;SDS011;14306;49.942;11.570;2022-09-14T08:11:53;17.90;;;14.50;;
1370;SDS011;14306;49.942;11.570;2022-09-14T08:14:22;23.73;;;15.60;;
1370;SDS011;14306;49.942;11.570;2022-09-14T08:16:51;22.23;;;16.57;;
1370;SDS011;14306;49.942;11.570;2022-09-14T08:19:19;17.43;;;13.07;;
1370;SDS011;14306;49.942;11.570;2022-09-14T08:21:48;16.03;;;11.70;;
1370;SDS011;14306;49.942;11.570;2022-09-14T08:24:17;17.23;;;13.03;;
1370;SDS011;14306;49.942;11.570;2022-09-14T08:26:46;13.43;;;11.77;;
1370;SDS011;14306;49.942;11.570;2022-09-14T08:29:16;17.90;;;12.87;;
1370;SDS011;14306;49.942;11.570;2022-09-14T08:31:47;17.03;;;14.20;;
1370;SDS011;14306;49.942;11.570;2022-09-14T08:34:17;21.97;;;14.53;;
1370;SDS011;14306;49.942;11.570;2022-09-14T08:36:46;18.87;;;15.17;;
1370;SDS011;14306;49.942;11.570;2022-09-14T08:39:15;20.73;;;14.37;;
1370;SDS011;14306;49.942;11.570;2022-09-14T08:41:49;19.83;;;12.40;;
1370;SDS011;14306;49.942;11.570;2022-09-14T08:44:20;15.67;;;13.00;;
1370;SDS011;14306;49.942;11.570;2022-09-14T08:46:57;15.63;;;12.90;;
1370;SDS011;14306;49.942;11.570;2022-09-14T08:52:16;17.87;;;13.87;;
1370;SDS011;14306;49.942;11.570;2022-09-14T08:54:52;20.90;;;15.10;;
1370;SDS011;14306;49.942;11.570;2022-09-14T08:57:25;22.83;;;15.70;;
1370;SDS011;14306;49.942;11.570;2022-09-14T09:00:02;18.13;;;14.87;;
1370;SDS011;14306;49.942;11.570;2022-09-14T09:02:41;20.57;;;16.00;;
1370;SDS011;14306;49.942;11.570;2022-09-14T09:05:22;23.00;;;16.60;;
1370;SDS011;14306;49.942;11.570;2022-09-14T09:07:59;26.23;;;16.23;;
1370;SDS011;14306;49.942;11.570;2022-09-14T09:10:33;22.53;;;14.70;;
1370;SDS011;14306;49.942;11.570;2022-09-14T09:13:05;18.30;;;14.23;;
1370;SDS011;14306;49.942;11.570;2022-09-14T09:15:40;21.73;;;14.10;;
1370;SDS011;14306;49.942;11.570;2022-09-14T09:18:17;15.33;;;13.20;;
1370;SDS011;14306;49.942;11.570;2022-09-14T09:20:49;18.00;;;12.47;;
1370;SDS011;14306;49.942;11.570;2022-09-14T09:23:19;21.07;;;15.53;;
1370;SDS011;14306;49.942;11.570;2022-09-14T09:25:53;17.67;;;12.80;;
1370;SDS011;14306;49.942;11.570;2022-09-14T09:28:26;14.50;;;11.50;;
1370;SDS011;14306;49.942;11.570;2022-09-14T09:30:56;16.73;;;13.10;;
1370;SDS011;14306;49.942;11.570;2022-09-14T09:33:28;16.60;;;12.03;;
1370;SDS011;14306;49.942;11.570;2022-09-14T09:35:57;20.23;;;12.90;;
1370;SDS011;14306;49.942;11.570;2022-09-14T09:38:27;21.60;;;12.73;;
1370;SDS011;14306;49.942;11.570;2022-09-14T09:40:57;18.33;;;12.97;;
1370;SDS011;14306;49.942;11.570;2022-09-14T09:43:28;15.80;;;12.03;;
1370;SDS011;14306;49.942;11.570;2022-09-14T09:46:15;14.37;;;12.27;;
1370;SDS011;14306;49.942;11.570;2022-09-14T09:48:45;16.07;;;11.87;;
1370;SDS011;14306;49.942;11.570;2022-09-14T09:51:14;11.50;;;10.40;;
1370;SDS011;14306;49.942;11.570;2022-09-14T09:53:49;15.57;;;12.90;;
1370;SDS011;14306;49.942;11.570;2022-09-14T09:56:20;14.37;;;11.40;;
1370;SDS011;14306;49.942;11.570;2022-09-14T09:58:51;18.37;;;11.70;;
1370;SDS011;14306;49.942;11.570;2022-09-14T10:01:21;12.60;;;10.50;;
1370;SDS011;14306;49.942;11.570;2022-09-14T10:04:06;12.97;;;10.00;;
1370;SDS011;14306;49.942;11.570;2022-09-14T10:06:44;13.07;;;10.37;;
1370;SDS011;14306;49.942;11.570;2022-09-14T10:09:22;12.27;;;10.93;;
1370;SDS011;14306;49.942;11.570;2022-09-14T10:11:57;14.53;;;12.00;;
1370;SDS011;14306;49.942;11.570;2022-09-14T10:14:29;14.27;;;10.23;;
1370;SDS011;14306;49.942;11.570;2022-09-14T10:17:06;14.00;;;10.83;;
1370;SDS011;14306;49.942;11.570;2022-09-14T10:19:49;17.67;;;11.43;;
1370;SDS011;14306;49.942;11.570;2022-09-14T10:22:24;14.60;;;10.37;;
1370;SDS011;14306;49.942;11.570;2022-09-14T10:24:55;10.30;;;8.50;;
1370;SDS011;14306;49.942;11.570;2022-09-14T10:27:33;8.43;;;7.57;;
1370;SDS011;14306;49.942;11.570;2022-09-14T10:30:06;13.53;;;8.23;;
1370;SDS011;14306;49.942;11.570;2022-09-14T10:32:43;13.40;;;8.93;;
1370;SDS011;14306;49.942;11.570;2022-09-14T10:35:17;11.70;;;7.70;;
1370;SDS011;14306;49.942;11.570;2022-09-14T10:37:53;18.03;;;9.00;;
1370;SDS011;14306;49.942;11.570;2022-09-14T10:40:32;14.47;;;9.10;;
1370;SDS011;14306;49.942;11.570;2022-09-14T10:43:14;20.83;;;10.37;;
1370;SDS011;14306;49.942;11.570;2022-09-14T10:45:48;23.00;;;13.40;;
1370;SDS011;14306;49.942;11.570;2022-09-14T10:48:43;73.63;;;25.17;;
1370;SDS011;14306;49.942;11.570;2022-09-14T10:51:31;40.77;;;16.63;;
1370;SDS011;14306;49.942;11.570;2022-09-14T10:54:13;31.37;;;13.73;;
1370;SDS011;14306;49.942;11.570;2022-09-14T10:57:02;27.10;;;11.60;;
1370;SDS011;14306;49.942;11.570;2022-09-14T10:59:44;8.97;;;8.07;;
1370;SDS011;14306;49.942;11.570;2022-09-14T11:02:36;24.70;;;11.30;;
1370;SDS011;14306;49.942;11.570;2022-09-14T11:05:21;12.57;;;9.17;;
1370;SDS011;14306;49.942;11.570;2022-09-14T11:07:59;25.03;;;10.33;;
1370;SDS011;14306;49.942;11.570;2022-09-14T11:10:45;19.60;;;10.73;;
1370;SDS011;14306;49.942;11.570;2022-09-14T11:13:31;10.37;;;7.73;;
1370;SDS011;14306;49.942;11.570;2022-09-14T11:16:13;18.83;;;11.00;;
1370;SDS011;14306;49.942;11.570;2022-09-14T11:18:55;21.07;;;11.57;;
1370;SDS011;14306;49.942;11.570;2022-09-14T11:21:31;22.33;;;10.13;;
1370;SDS011;14306;49.942;11.570;2022-09-14T11:24:13;12.70;;;9.23;;
1370;SDS011;14306;49.942;11.570;2022-09-14T11:26:48;9.47;;;7.63;;
1370;SDS011;14306;49.942;11.570;2022-09-14T11:29:27;10.90;;;8.70;;
1370;SDS011;14306;49.942;11.570;2022-09-14T11:32:00;12.07;;;10.87;;
1370;SDS011;14306;49.942;11.570;2022-09-14T11:34:49;18.17;;;15.60;;
1370;SDS011;14306;49.942;11.570;2022-09-14T11:37:24;15.00;;;10.40;;
1370;SDS011;14306;49.942;11.570;2022-09-14T11:40:02;18.07;;;8.30;;
1370;SDS011;14306;49.942;11.570;2022-09-14T11:42:41;16.47;;;8.17;;
1370;SDS011;14306;49.942;11.570;2022-09-14T11:45:14;11.00;;;9.77;;
1370;SDS011;14306;49.942;11.570;2022-09-14T11:47:49;12.97;;;8.73;;
1370;SDS011;14306;49.942;11.570;2022-09-14T11:50:24;10.77;;;9.20;;
1370;SDS011;14306;49.942;11.570;2022-09-14T11:52:59;10.70;;;8.37;;
1370;SDS011;14306;49.942;11.570;2022-09-14T11:55:32;11.80;;;7.17;;
1370;SDS011;14306;49.942;11.570;2022-09-14T11:58:03;7.80;;;7.10;;
1370;SDS011;14306;49.942;11.570;2022-09-14T12:00:45;9.50;;;8.60;;
1370;SDS011;14306;49.942;11.570;2022-09-14T12:03:46;10.40;;;7.93;;
1370;SDS011;14306;49.942;11.570;2022-09-14T12:15:16;9.03;;;7.80;;
1370;SDS011;14306;49.942;11.570;2022-09-14T12:17:49;7.70;;;7.00;;
1370;SDS011;14306;49.942;11.570;2022-09-14T12:23:26;8.40;;;7.60;;
1370;SDS011;14306;49.942;11.570;2022-09-14T12:26:09;7.30;;;6.40;;
1370;SDS011;14306;49.942;11.570;2022-09-14T12:28:58;8.70;;;7.80;;
1370;SDS011;14306;49.942;11.570;2022-09-14T12:34:31;7.50;;;6.40;;
1370;SDS011;14306;49.942;11.570;2022-09-14T12:37:02;8.57;;;7.67;;
1370;SDS011;14306;49.942;11.570;2022-09-14T12:42:49;7.67;;;6.60;;
1370;SDS011;14306;49.942;11.570;2022-09-14T12:51:28;10.03;;;7.20;;
1370;SDS011;14306;49.942;11.570;2022-09-14T12:54:16;5.53;;;4.90;;
1370;SDS011;14306;49.942;11.570;2022-09-14T12:56:53;7.33;;;6.43;;
1370;SDS011;14306;49.942;11.570;2022-09-14T12:59:30;7.77;;;7.07;;
1370;SDS011;14306;49.942;11.570;2022-09-14T13:02:22;7.40;;;6.70;;
1370;SDS011;14306;49.942;11.570;2022-09-14T13:05:18;9.47;;;7.17;;
1370;SDS011;14306;49.942;11.570;2022-09-14T13:07:49;6.23;;;5.47;;
1370;SDS011;14306;49.942;11.570;2022-09-14T13:10:19;8.63;;;6.20;;
1370;SDS011;14306;49.942;11.570;2022-09-14T13:12:51;10.20;;;8.30;;
1370;SDS011;14306;49.942;11.570;2022-09-14T13:15:20;11.00;;;6.70;;
1370;SDS011;14306;49.942;11.570;2022-09-14T13:18:00;8.90;;;5.50;;
1370;SDS011;14306;49.942;11.570;2022-09-14T13:20:31;9.23;;;6.90;;
1370;SDS011;14306;49.942;11.570;2022-09-14T13:23:01;6.00;;;5.40;;
1370;SDS011;14306;49.942;11.570;2022-09-14T13:25:31;9.10;;;6.00;;
1370;SDS011;14306;49.942;11.570;2022-09-14T13:28:01;7.23;;;6.50;;
1370;SDS011;14306;49.942;11.570;2022-09-14T13:30:32;6.47;;;5.90;;
1370;SDS011;14306;49.942;11.570;2022-09-14T13:33:04;6.73;;;6.00;;
1370;SDS011;14306;49.942;11.570;2022-09-14T13:35:33;6.77;;;5.73;;
1370;SDS011;14306;49.942;11.570;2022-09-14T13:38:06;5.13;;;4.73;;
1370;SDS011;14306;49.942;11.570;2022-09-14T13:40:36;5.53;;;5.03;;
1370;SDS011;14306;49.942;11.570;2022-09-14T13:43:05;7.13;;;5.77;;
1370;SDS011;14306;49.942;11.570;2022-09-14T13:45:34;7.80;;;7.00;;
1370;SDS011;14306;49.942;11.570;2022-09-14T13:48:07;7.10;;;6.40;;
1370;SDS011;14306;49.942;11.570;2022-09-14T13:50:36;6.80;;;6.10;;
1370;SDS011;14306;49.942;11.570;2022-09-14T13:53:04;5.87;;;5.17;;
1370;SDS011;14306;49.942;11.570;2022-09-14T13:55:42;8.13;;;6.40;;
1370;SDS011;14306;49.942;11.570;2022-09-14T13:58:12;9.93;;;8.07;;
1370;SDS011;14306;49.942;11.570;2022-09-14T14:00:47;8.37;;;7.20;;
1370;SDS011;14306;49.942;11.570;2022-09-14T14:03:23;9.80;;;8.80;;
1370;SDS011;14306;49.942;11.570;2022-09-14T14:05:58;14.70;;;8.80;;
1370;SDS011;14306;49.942;11.570;2022-09-14T14:08:32;11.47;;;10.33;;
1370;SDS011;14306;49.942;11.570;2022-09-14T14:11:03;10.50;;;9.53;;
1370;SDS011;14306;49.942;11.570;2022-09-14T14:13:33;12.37;;;11.17;;
1370;SDS011;14306;49.942;11.570;2022-09-14T14:16:13;9.10;;;8.20;;
1370;SDS011;14306;49.942;11.570;2022-09-14T14:18:51;7.93;;;7.20;;
1370;SDS011;14306;49.942;11.570;2022-09-14T14:21:24;12.63;;;11.37;;
1370;SDS011;14306;49.942;11.570;2022-09-14T14:24:16;13.03;;;11.73;;
1370;SDS011;14306;49.942;11.570;2022-09-14T14:26:53;15.47;;;10.27;;
1370;SDS011;14306;49.942;11.570;2022-09-14T14:29:22;10.80;;;9.80;;
1370;SDS011;14306;49.942;11.570;2022-09-14T14:31:52;13.30;;;11.63;;
1370;SDS011;14306;49.942;11.570;2022-09-14T14:34:23;10.60;;;9.57;;
1370;SDS011;14306;49.942;11.570;2022-09-14T14:36:53;10.47;;;8.80;;
1370;SDS011;14306;49.942;11.570;2022-09-14T14:39:22;11.60;;;10.40;;
1370;SDS011;14306;49.942;11.570;2022-09-14T14:41:52;12.80;;;11.30;;
1370;SDS011;14306;49.942;11.570;2022-09-14T14:44:22;12.23;;;11.13;;
1370;SDS011;14306;49.942;11.570;2022-09-14T14:46:54;11.03;;;9.93;;
1370;SDS011;14306;49.942;11.570;2022-09-14T14:49:24;13.50;;;7.67;;
1370;SDS011;14306;49.942;11.570;2022-09-14T14:51:52;10.57;;;8.13;;
1370;SDS011;14306;49.942;11.570;2022-09-14T14:54:20;10.70;;;9.40;;
1370;SDS011;14306;49.942;11.570;2022-09-14T14:56:49;11.33;;;10.13;;
1370;SDS011;14306;49.942;11.570;2022-09-14T14:59:23;13.03;;;11.73;;
1370;SDS011;14306;49.942;11.570;2022-09-14T15:01:54;11.37;;;10.00;;
1370;SDS011;14306;49.942;11.570;2022-09-14T15:04:25;8.40;;;7.60;;
1370;SDS011;14306;49.942;11.570;2022-09-14T15:06:53;13.10;;;9.40;;
1370;SDS011;14306;49.942;11.570;2022-09-14T15:09:24;9.43;;;8.43;;
1370;SDS011;14306;49.942;11.570;2022-09-14T15:11:53;11.40;;;8.23;;
1370;SDS011;14306;49.942;11.570;2022-09-14T15:14:22;9.93;;;8.97;;
1370;SDS011;14306;49.942;11.570;2022-09-14T15:16:53;8.80;;;8.00;;
1370;SDS011;14306;49.942;11.570;2022-09-14T15:19:27;8.63;;;7.30;;
1370;SDS011;14306;49.942;11.570;2022-09-14T15:21:55;11.20;;;7.93;;
1370;SDS011;14306;49.942;11.570;2022-09-14T15:24:27;9.90;;;8.93;;
1370;SDS011;14306;49.942;11.570;2022-09-14T15:26:56;7.73;;;7.07;;
1370;SDS011;14306;49.942;11.570;2022-09-14T15:29:25;9.00;;;8.10;;